Time;durP1;ratioP1;P1;durP2;ratioP2;P2;SDS_P1;SDS_P2;PMS_P1;PMS_P2;Temp;Humidity;BMP_temperature;BMP_pressure;BME280_temperature;BME280_humidity;BME280_pressure;Samples;Min_cycle;Max_cycle;Signal;HPM_P1;HPM_P2
2021/01/19 00:00:28;;;;;;;11.07;6.97;;;2.40;99.90;;;0.77;100.00;100483.41;4965785;28;100333;-60
2021/01/19 00:02:54;;;;;;;10.63;7.90;;;2.40;99.90;;;0.77;100.00;100478.13;4964567;28;101075;-62
2021/01/19 00:05:21;;;;;;;8.43;6.33;;;2.40;99.90;;;0.76;100.00;100486.13;4965791;28;100275;-61
2021/01/19 00:07:47;;;;;;;9.90;6.70;;;2.40;99.90;;;0.73;100.00;100481.91;4966083;28;99904;-60
2021/01/19 00:10:13;;;;;;;9.37;6.00;;;2.60;99.90;;;0.75;100.00;100492.31;4965447;28;100116;-62
2021/01/19 00:12:40;;;;;;;10.10;6.40;;;2.60;99.90;;;0.78;100.00;100490.38;4965443;28;101391;-61
2021/01/19 00:15:08;;;;;;;11.87;7.00;;;2.40;99.90;;;0.81;100.00;100486.72;4964903;28;100857;-61
2021/01/19 00:17:35;;;;;;;11.40;7.23;;;2.50;99.90;;;0.76;100.00;100475.59;4965334;28;100209;-62
2021/01/19 00:20:03;;;;;;;16.60;7.90;;;2.60;99.90;;;0.77;100.00;100482.56;4965471;28;100240;-61
2021/01/19 00:22:30;;;;;;;9.33;7.50;;;3.00;99.90;;;0.79;100.00;100473.63;4980181;28;104547;-61
2021/01/19 00:24:56;;;;;;;11.93;8.43;;;2.50;99.90;;;0.82;100.00;100475.22;4965097;28;100751;-62
2021/01/19 00:27:22;;;;;;;12.57;8.83;;;2.50;99.90;;;0.77;100.00;100475.50;4965479;28;100007;-60
2021/01/19 00:29:49;;;;;;;12.30;8.40;;;2.50;99.90;;;0.83;100.00;100461.97;4965469;28;100407;-60
2021/01/19 00:32:15;;;;;;;12.50;8.50;;;2.50;99.90;;;0.83;100.00;100466.41;4964786;28;101573;-61
2021/01/19 00:34:45;;;;;;;11.37;8.73;;;2.60;99.90;;;0.84;100.00;100462.81;4965109;28;100577;-60
2021/01/19 00:37:12;;;;;;;11.17;8.47;;;2.60;99.90;;;0.85;100.00;100465.38;4966378;28;100224;-59
2021/01/19 00:39:38;;;;;;;13.27;9.23;;;2.50;99.90;;;0.88;100.00;100456.41;4965184;28;100370;-60
2021/01/19 00:42:05;;;;;;;12.17;9.37;;;2.70;99.90;;;0.91;100.00;100461.50;4965478;28;100895;-61
2021/01/19 00:44:32;;;;;;;12.73;8.53;;;2.50;99.90;;;0.90;100.00;100458.03;4980132;28;102077;-60
2021/01/19 00:46:58;;;;;;;12.30;8.80;;;2.60;99.90;;;0.90;100.00;100460.66;4965312;28;100495;-61
2021/01/19 00:49:25;;;;;;;15.97;9.30;;;2.60;99.90;;;0.87;100.00;100454.72;4980337;28;100298;-61
2021/01/19 00:51:52;;;;;;;12.63;8.80;;;2.60;99.90;;;0.86;100.00;100456.53;4978732;28;103629;-61
2021/01/19 00:54:19;;;;;;;11.27;8.03;;;2.50;99.90;;;0.90;100.00;100447.47;4964878;28;100864;-61
2021/01/19 00:56:45;;;;;;;8.80;6.40;;;2.50;99.90;;;0.92;100.00;100453.50;4979438;28;100157;-62
2021/01/19 00:59:18;;;;;;;9.80;8.30;;;2.70;99.90;;;0.95;100.00;100441.94;4979531;27;100142;-62
2021/01/19 01:01:47;;;;;;;10.23;7.60;;;2.60;99.90;;;0.96;100.00;100449.75;4964261;28;101227;-60
2021/01/19 01:04:13;;;;;;;12.43;7.43;;;1.70;99.90;;;0.99;100.00;100449.56;4979673;28;101329;-61
2021/01/19 01:06:40;;;;;;;11.67;8.00;;;2.60;99.90;;;0.98;100.00;100450.53;4964665;28;100084;-62
2021/01/19 01:09:07;;;;;;;11.53;8.07;;;2.70;99.90;;;0.98;100.00;100452.31;4963976;28;100202;-61
2021/01/19 01:11:42;;;;;;;11.57;7.87;;;2.60;99.90;;;0.98;100.00;100453.16;4964400;28;101242;-61
2021/01/19 01:14:11;;;;;;;13.50;7.70;;;2.60;99.90;;;1.01;100.00;100454.72;4965026;28;100173;-62
2021/01/19 01:16:39;;;;;;;12.30;7.80;;;2.80;99.90;;;1.06;100.00;100444.78;4964629;28;100188;-61
2021/01/19 01:19:06;;;;;;;11.20;7.57;;;2.70;99.90;;;1.05;100.00;100446.56;4965348;28;100374;-61
2021/01/19 01:21:35;;;;;;;10.43;7.40;;;2.70;99.90;;;1.09;100.00;100455.13;4965108;28;101108;-62
2021/01/19 01:24:02;;;;;;;14.90;7.63;;;2.80;99.90;;;1.08;100.00;100433.19;4964566;28;100702;-62
2021/01/19 01:26:30;;;;;;;10.47;7.10;;;2.70;99.90;;;1.05;100.00;100436.00;4964652;28;100204;-62
2021/01/19 01:28:56;;;;;;;10.10;7.00;;;2.70;99.90;;;1.06;100.00;100432.44;4965070;28;100516;-62
2021/01/19 01:31:23;;;;;;;10.87;7.50;;;2.40;99.90;;;1.00;100.00;100430.16;4964152;28;101050;-62
2021/01/19 01:33:49;;;;;;;9.80;7.40;;;2.70;99.90;;;1.05;100.00;100437.81;4965202;28;100678;-63
2021/01/19 01:36:16;;;;;;;9.37;7.47;;;2.70;99.90;;;1.00;100.00;100429.31;4964854;28;101294;-62
2021/01/19 01:38:43;;;;;;;9.37;7.40;;;2.70;99.90;;;1.00;100.00;100435.44;4964847;28;100099;-62
2021/01/19 01:41:15;;;;;;;10.40;7.50;;;2.70;99.90;;;1.05;100.00;100428.09;4963764;28;101114;-63
2021/01/19 01:43:42;;;;;;;9.80;7.63;;;2.60;99.90;;;1.08;100.00;100433.19;4978491;28;102999;-63
2021/01/19 01:46:11;;;;;;;10.33;7.60;;;2.70;99.90;;;1.09;100.00;100426.13;4965211;28;99852;-61
2021/01/19 01:48:39;;;;;;;11.17;7.87;;;2.70;99.90;;;1.08;100.00;100433.19;4964615;28;100285;-61
2021/01/19 01:51:07;;;;;;;10.70;7.40;;;2.70;99.90;;;1.14;100.00;100428.47;4964224;28;100062;-60
2021/01/19 01:53:33;;;;;;;8.23;6.17;;;2.70;99.90;;;1.14;100.00;100410.88;4964067;28;100763;-65
2021/01/19 01:56:00;;;;;;;9.50;6.83;;;2.70;99.90;;;1.09;100.00;100418.22;4964038;28;100492;-61
2021/01/19 01:58:27;;;;;;;9.77;7.40;;;2.80;99.90;;;1.10;100.00;100419.09;4965226;28;100259;-61
2021/01/19 02:00:55;;;;;;;11.60;7.03;;;2.70;99.90;;;1.07;100.00;100420.97;4964194;28;100847;-63
2021/01/19 02:03:21;;;;;;;11.97;7.47;;;2.80;99.90;;;1.07;100.00;100404.31;4963462;28;101327;-62
2021/01/19 02:05:48;;;;;;;9.97;7.30;;;2.80;99.90;;;1.10;100.00;100419.94;4962991;28;100279;-62
2021/01/19 02:08:27;;;;;;;8.00;6.10;;;2.80;99.90;;;1.14;100.00;100410.03;4964716;28;100050;-62
2021/01/19 02:11:07;;;;;;;9.87;6.27;;;2.70;99.90;;;1.14;100.00;100410.88;4963424;27;100794;-63
2021/01/19 02:13:45;;;;;;;13.03;7.50;;;2.80;99.90;;;1.11;100.00;100424.25;4963539;28;101513;-65
2021/01/19 02:16:30;;;;;;;9.93;6.60;;;2.80;99.90;;;1.13;100.00;100429.41;4963976;28;100221;-62
2021/01/19 02:19:16;;;;;;;8.90;6.80;;;2.90;99.90;;;1.19;100.00;100411.44;4944333;28;100311;-62
2021/01/19 02:22:08;;;;;;;11.23;7.50;;;2.80;99.90;;;1.17;100.00;100407.22;4956778;28;101704;-62
2021/01/19 02:24:39;;;;;;;10.93;7.57;;;2.70;99.90;;;1.11;100.00;100412.88;4967280;28;100343;-63
2021/01/19 02:27:20;;;;;;;8.67;7.23;;;2.80;99.90;;;1.12;100.00;100407.47;4966812;28;100427;-62
2021/01/19 02:30:17;;;;;;;10.80;6.63;;;2.80;99.90;;;1.14;100.00;100404.75;4967082;28;100028;-62
2021/01/19 02:33:09;;;;;;;8.40;6.27;;;2.80;99.90;;;1.13;100.00;100403.06;4966310;28;100276;-62
2021/01/19 02:35:47;;;;;;;9.90;7.03;;;2.80;99.90;;;1.12;100.00;100411.91;4964758;28;100891;-62
2021/01/19 02:38:27;;;;;;;7.13;5.97;;;2.80;99.90;;;1.15;100.00;100401.19;4967214;28;100253;-62
2021/01/19 02:40:54;;;;;;;8.93;6.00;;;2.80;99.90;;;1.14;100.00;100399.47;4966820;28;99995;-62
2021/01/19 02:43:25;;;;;;;10.03;5.70;;;3.00;99.90;;;1.12;100.00;100399.56;4967501;28;100462;-62
2021/01/19 02:45:53;;;;;;;7.33;6.20;;;2.80;99.90;;;1.11;100.00;100395.28;4966620;28;100855;-62
2021/01/19 02:48:21;;;;;;;9.13;6.67;;;2.80;99.90;;;1.10;100.00;100392.72;4962184;28;100894;-63
2021/01/19 02:50:47;;;;;;;10.87;6.40;;;2.80;99.90;;;1.08;100.00;100398.94;4955313;28;100401;-61
2021/01/19 02:53:15;;;;;;;7.53;6.13;;;2.70;99.90;;;1.08;100.00;100395.47;4966606;28;100837;-62
2021/01/19 02:55:44;;;;;;;7.20;5.77;;;2.80;99.90;;;1.14;100.00;100391.56;4966114;28;100327;-62
2021/01/19 02:58:29;;;;;;;6.80;5.70;;;2.80;99.90;;;1.20;100.00;100397.31;4966221;28;100410;-62
2021/01/19 03:01:05;;;;;;;8.57;5.97;;;2.90;99.90;;;1.16;100.00;100392.34;4966050;28;100243;-62
2021/01/19 03:03:35;;;;;;;8.83;5.70;;;2.80;99.90;;;1.13;100.00;100396.00;4966788;28;100159;-65
2021/01/19 03:06:08;;;;;;;7.37;5.70;;;2.80;99.90;;;1.12;100.00;100398.72;4966133;28;100745;-63
2021/01/19 03:08:37;;;;;;;10.07;6.20;;;2.80;99.90;;;1.12;100.00;100393.44;4982356;28;100054;-63
2021/01/19 03:11:06;;;;;;;7.30;5.83;;;2.80;99.90;;;1.10;100.00;100395.38;4972428;28;100138;-64
2021/01/19 03:13:33;;;;;;;8.53;5.60;;;2.80;99.90;;;1.14;100.00;100387.16;4966320;28;100917;-64
2021/01/19 03:16:07;;;;;;;6.20;5.60;;;2.80;99.90;;;1.13;100.00;100385.47;4966938;28;100549;-63
2021/01/19 03:18:36;;;;;;;6.00;5.07;;;2.90;99.90;;;1.11;100.00;100384.72;4966823;28;100220;-64
2021/01/19 03:21:04;;;;;;;6.20;5.17;;;2.60;99.90;;;1.14;100.00;100384.50;4966953;28;99949;-64
2021/01/19 03:23:31;;;;;;;6.43;5.10;;;2.80;99.90;;;1.13;100.00;100385.47;4965091;28;101433;-62
2021/01/19 03:25:58;;;;;;;7.13;5.60;;;2.80;99.90;;;1.16;100.00;100392.34;4966182;28;101065;-63
2021/01/19 03:28:24;;;;;;;8.73;6.00;;;2.90;99.90;;;1.22;100.00;100384.91;4967371;28;100117;-62
2021/01/19 03:30:51;;;;;;;6.87;5.47;;;2.90;99.90;;;1.16;100.00;100376.53;4965465;28;100153;-64
2021/01/19 03:33:18;;;;;;;6.70;5.30;;;2.70;99.90;;;1.11;100.00;100370.72;4966289;28;100190;-62
2021/01/19 03:35:45;;;;;;;6.60;5.50;;;2.90;99.90;;;1.10;100.00;100374.28;4966000;28;101178;-63
2021/01/19 03:38:12;;;;;;;9.30;5.50;;;2.90;99.90;;;1.11;100.00;100379.47;4966898;28;100072;-63
2021/01/19 03:40:42;;;;;;;6.00;4.73;;;2.90;99.90;;;1.15;100.00;100375.66;4965578;28;100267;-63
2021/01/19 03:43:09;;;;;;;6.53;5.20;;;3.00;99.90;;;1.16;100.00;100365.97;4965729;28;100912;-63
2021/01/19 03:45:35;;;;;;;7.80;6.03;;;2.80;99.90;;;1.12;100.00;100377.66;4965772;28;101516;-63
2021/01/19 03:48:03;;;;;;;7.27;5.10;;;3.70;99.90;;;1.13;100.00;100377.56;4965265;28;100289;-63
2021/01/19 03:50:30;;;;;;;5.73;5.03;;;2.90;99.90;;;1.16;100.00;100366.81;4966296;28;100208;-62
2021/01/19 03:52:57;;;;;;;7.03;5.23;;;2.90;99.90;;;1.16;100.00;100366.81;4965633;28;101366;-63
2021/01/19 03:55:24;;;;;;;9.90;5.37;;;2.90;99.90;;;1.11;100.00;100358.38;4966302;28;100668;-63
2021/01/19 03:57:50;;;;;;;6.93;5.23;;;2.90;99.90;;;1.22;100.00;100357.69;4966318;28;100261;-62
2021/01/19 04:00:18;;;;;;;7.37;5.70;;;2.90;99.90;;;1.20;100.00;100360.44;4965916;28;100260;-63
2021/01/19 04:02:44;;;;;;;6.73;4.87;;;2.80;99.90;;;1.14;100.00;100349.41;4965440;28;101331;-63
2021/01/19 04:05:11;;;;;;;7.10;5.73;;;2.90;99.90;;;1.17;100.00;100343.94;4966180;28;101295;-60
2021/01/19 04:07:41;;;;;;;6.67;5.00;;;2.80;99.90;;;1.27;100.00;100353.81;4966073;28;99988;-62
2021/01/19 04:10:13;;;;;;;5.73;4.97;;;2.70;99.90;;;1.16;100.00;100334.34;4966382;28;100170;-62
2021/01/19 04:12:40;;;;;;;6.00;4.63;;;2.90;99.90;;;1.17;100.00;100342.16;4964751;28;101031;-62
2021/01/19 04:15:08;;;;;;;6.63;4.90;;;2.80;99.90;;;1.20;100.00;100341.13;4965398;28;100996;-60
2021/01/19 04:17:35;;;;;;;9.63;5.37;;;2.80;99.90;;;1.17;100.00;100339.53;4965591;28;100150;-63
2021/01/19 04:20:02;;;;;;;6.13;5.10;;;2.80;99.90;;;1.13;100.00;100335.38;4965299;28;100164;-61
2021/01/19 04:22:28;;;;;;;6.43;5.13;;;3.00;99.90;;;1.10;100.00;100340.88;4964923;28;102016;-61
2021/01/19 04:24:55;;;;;;;8.37;5.17;;;2.80;99.90;;;1.11;100.00;100339.09;4965352;28;100170;-62
2021/01/19 04:27:22;;;;;;;7.73;5.47;;;2.70;99.90;;;1.15;100.00;100328.22;4966104;28;100647;-62
2021/01/19 04:29:48;;;;;;;7.00;5.90;;;2.70;99.90;;;1.25;100.00;100328.47;4965958;28;100064;-61
2021/01/19 04:32:15;;;;;;;7.70;5.47;;;2.80;99.90;;;1.23;100.00;100333.88;4965129;28;100766;-62
2021/01/19 04:34:42;;;;;;;8.37;5.87;;;2.80;99.90;;;1.26;100.00;100327.53;4964932;28;101113;-61
2021/01/19 04:37:08;;;;;;;8.27;6.07;;;2.90;99.90;;;1.22;100.00;100333.97;4964504;28;100135;-60
2021/01/19 04:39:35;;;;;;;6.90;5.40;;;2.90;99.90;;;1.18;100.00;100333.31;4965452;28;100152;-62
2021/01/19 04:42:02;;;;;;;7.00;5.40;;;2.90;99.90;;;1.25;100.00;100331.97;4964394;28;101466;-62
2021/01/19 04:44:30;;;;;;;7.10;4.73;;;3.60;99.90;;;1.21;100.00;100337.56;4964828;28;101417;-62
2021/01/19 04:46:58;;;;;;;6.33;4.87;;;3.10;99.90;;;1.21;100.00;100335.75;4964766;28;100201;-61
2021/01/19 04:49:25;;;;;;;11.43;5.60;;;2.90;99.90;;;1.29;100.00;100335.25;4964961;28;100102;-62
2021/01/19 04:51:52;;;;;;;6.43;4.80;;;2.90;99.90;;;1.31;100.00;100328.97;4964223;28;101435;-62
2021/01/19 04:54:22;;;;;;;6.67;4.60;;;3.00;99.90;;;1.26;100.00;100322.28;4965269;28;100272;-62
2021/01/19 04:56:51;;;;;;;7.03;4.97;;;3.00;99.90;;;1.28;100.00;100318.59;4965605;28;100526;-62
2021/01/19 04:59:24;;;;;;;5.67;5.00;;;3.00;99.90;;;1.28;100.00;100315.97;4965163;28;100072;-62
2021/01/19 05:02:35;;;;;;;7.47;4.90;;;3.00;99.90;;;1.37;100.00;100314.50;4970985;28;101597;-60
2021/01/19 05:05:45;;;;;;;5.37;4.80;;;3.00;99.90;;;1.35;100.00;100316.44;4964331;28;100571;-61
2021/01/19 05:09:07;;;;;;;6.57;4.40;;;3.00;99.90;;;1.30;100.00;100307.97;4965157;28;100313;-62
2021/01/19 05:11:49;;;;;;;5.43;4.50;;;3.00;99.90;;;1.34;100.00;100306.81;4964550;28;100145;-62
2021/01/19 05:14:20;;;;;;;7.70;5.00;;;3.10;99.90;;;1.34;100.00;100306.81;4964814;28;100917;-62
2021/01/19 05:16:49;;;;;;;6.67;5.27;;;3.10;99.90;;;1.40;100.00;100309.06;4963834;28;101053;-62
2021/01/19 05:19:21;;;;;;;6.20;4.77;;;3.10;99.90;;;1.42;100.00;100304.53;4964392;28;100207;-62
2021/01/19 05:21:49;;;;;;;5.47;4.37;;;3.00;99.90;;;1.38;100.00;100310.94;4964666;28;100657;-60
2021/01/19 05:24:17;;;;;;;4.23;3.53;;;3.00;99.90;;;1.34;100.00;100299.78;4963967;27;100342;-62
2021/01/19 05:26:43;;;;;;;7.70;5.00;;;3.10;99.90;;;1.35;100.00;100296.19;4963899;28;100247;-63
2021/01/19 05:29:13;;;;;;;5.37;4.10;;;3.10;99.90;;;1.47;100.00;100296.34;4964123;28;100097;-62
2021/01/19 05:31:39;;;;;;;4.80;4.30;;;3.10;99.90;;;1.41;100.00;100287.00;4964315;27;100163;-62
2021/01/19 05:34:09;;;;;;;4.70;4.30;;;3.00;99.90;;;1.38;100.00;100292.47;4963812;28;101355;-62
2021/01/19 05:36:43;;;;;;;5.97;4.50;;;3.00;99.90;;;1.39;100.00;100294.19;4963709;28;100259;-62
2021/01/19 05:39:15;;;;;;;6.77;4.10;;;3.10;99.90;;;1.34;100.00;100286.59;4964583;28;100023;-62
2021/01/19 05:41:44;;;;;;;5.97;4.00;;;3.30;99.90;;;1.34;100.00;100293.66;4963861;28;100228;-62
2021/01/19 05:44:20;;;;;;;6.93;4.23;;;3.10;99.90;;;1.38;100.00;100290.69;4963784;28;101673;-62
2021/01/19 05:47:02;;;;;;;4.93;3.90;;;3.20;99.90;;;1.45;100.00;100288.53;4964447;28;100932;-63
2021/01/19 05:49:32;;;;;;;5.37;4.13;;;2.40;99.90;;;1.37;100.00;100290.78;4964087;27;100190;-62
2021/01/19 05:52:05;;;;;;;4.70;3.77;;;3.00;99.90;;;1.33;100.00;100289.31;4964194;28;100285;-62
2021/01/19 05:54:34;;;;;;;4.67;4.17;;;3.30;99.90;;;1.33;100.00;100292.81;4964499;28;101071;-64
2021/01/19 05:57:05;;;;;;;4.77;4.03;;;3.20;99.90;;;1.40;100.00;100286.16;4967677;28;100617;-60
2021/01/19 05:59:34;;;;;;;9.07;5.07;;;3.20;99.90;;;1.49;100.00;100300.53;4967940;28;100260;-62
2021/01/19 06:02:07;;;;;;;7.23;5.67;;;3.20;99.90;;;1.42;100.00;100289.56;4967426;28;99940;-62
2021/01/19 06:04:37;;;;;;;7.17;5.03;;;3.10;99.90;;;1.40;100.00;100286.16;4967528;28;101500;-62
2021/01/19 06:07:05;;;;;;;12.60;7.90;;;3.30;99.90;;;1.39;100.00;100295.03;4967185;28;101096;-61
2021/01/19 06:09:33;;;;;;;5.73;4.43;;;3.90;99.90;;;1.40;100.00;100291.44;4967638;28;100007;-62
2021/01/19 06:12:00;;;;;;;5.57;4.30;;;3.10;99.90;;;1.35;100.00;100288.28;4967475;28;100416;-62
2021/01/19 06:14:28;;;;;;;4.77;3.90;;;3.20;99.90;;;1.46;100.00;100284.09;4967983;28;100824;-61
2021/01/19 06:17:13;;;;;;;5.50;3.90;;;3.20;99.90;;;1.46;100.00;100284.09;4967291;28;99871;-63
2021/01/19 06:19:42;;;;;;;5.33;4.80;;;3.70;99.90;;;1.38;100.00;100281.94;4967151;28;100075;-62
2021/01/19 06:22:15;;;;;;;4.87;4.30;;;3.30;99.90;;;1.40;100.00;100273.00;4967483;28;100185;-62
2021/01/19 06:24:43;;;;;;;5.90;4.60;;;3.20;99.90;;;1.37;100.00;100261.78;4966768;28;100888;-62
2021/01/19 06:27:13;;;;;;;5.70;4.37;;;3.20;99.90;;;1.38;100.00;100255.56;4966878;28;101168;-63
2021/01/19 06:29:39;;;;;;;4.07;3.63;;;3.20;99.90;;;1.38;100.00;100253.78;4967249;28;99979;-62
2021/01/19 06:32:08;;;;;;;6.53;4.07;;;3.80;99.90;;;1.49;100.00;100249.59;4967571;28;100282;-62
2021/01/19 06:34:38;;;;;;;5.10;3.90;;;3.20;99.90;;;1.47;100.00;100249.72;4966749;28;100613;-61
2021/01/19 06:37:06;;;;;;;3.97;3.53;;;3.20;99.90;;;1.51;100.00;100250.34;4981860;28;102701;-63
2021/01/19 06:39:40;;;;;;;4.77;4.10;;;3.20;99.90;;;1.49;100.00;100239.88;4967269;28;100499;-62
2021/01/19 06:42:14;;;;;;;4.10;3.67;;;3.10;99.90;;;1.48;100.00;100235.59;4966647;28;100264;-62
2021/01/19 06:44:46;;;;;;;4.30;3.50;;;3.20;99.90;;;1.48;100.00;100235.59;4967582;28;101291;-63
2021/01/19 06:47:16;;;;;;;4.53;3.80;;;3.20;99.90;;;1.58;100.00;100230.53;4966003;28;101078;-62
2021/01/19 06:49:43;;;;;;;5.10;4.00;;;3.10;99.90;;;1.65;100.00;100224.75;4967292;28;100419;-63
2021/01/19 06:52:13;;;;;;;4.90;3.87;;;3.30;99.90;;;1.59;100.00;100230.44;4967229;28;100083;-63
2021/01/19 06:55:06;;;;;;;4.47;4.07;;;3.20;99.90;;;1.54;100.00;100221.13;4966614;27;100737;-61
2021/01/19 06:57:59;;;;;;;4.50;4.10;;;3.30;99.90;;;1.52;100.00;100213.31;4965680;28;101027;-63
2021/01/19 07:00:30;;;;;;;4.73;4.03;;;3.20;99.90;;;1.54;100.00;100221.13;4947333;28;100170;-63
2021/01/19 07:02:56;;;;;;;4.13;3.73;;;3.10;99.90;;;1.69;100.00;100202.50;4953786;28;100004;-63
2021/01/19 07:05:24;;;;;;;6.70;4.40;;;3.30;99.90;;;1.67;100.00;100203.53;4966143;28;101851;-63
2021/01/19 07:08:13;;;;;;;7.33;4.17;;;3.30;99.90;;;1.66;100.00;100202.69;4966116;28;101727;-63
2021/01/19 07:10:51;;;;;;;7.27;4.87;;;3.20;99.90;;;1.59;100.00;100198.78;4965995;28;100300;-63
2021/01/19 07:13:23;;;;;;;4.27;3.87;;;3.20;99.90;;;1.68;100.00;100202.59;4966875;28;100267;-63
2021/01/19 07:16:08;;;;;;;5.13;4.50;;;3.30;99.90;;;1.66;100.00;100196.56;4965681;28;101695;-63
2021/01/19 07:18:48;;;;;;;4.90;4.40;;;3.50;99.90;;;1.72;100.00;100197.03;4965985;28;101276;-63
2021/01/19 07:21:16;;;;;;;7.20;4.30;;;3.30;99.90;;;1.74;100.00;100192.47;4966157;28;100436;-63
2021/01/19 07:24:21;;;;;;;5.00;4.00;;;3.30;99.90;;;1.78;100.00;100195.75;4965719;28;100413;-64
2021/01/19 07:26:52;;;;;;;6.17;4.27;;;3.30;99.90;;;1.78;100.00;100177.28;4965757;28;100659;-63
2021/01/19 07:29:22;;;;;;;6.50;4.60;;;2.10;99.90;;;1.79;100.00;100179.81;4966789;28;100568;-63
2021/01/19 07:31:49;;;;;;;4.83;4.37;;;3.40;99.90;;;1.78;100.00;100169.34;4966520;28;100151;-63
2021/01/19 07:34:18;;;;;;;7.57;4.97;;;3.40;99.90;;;1.92;100.00;100165.78;4967156;28;99970;-63
2021/01/19 07:36:53;;;;;;;4.60;4.00;;;3.40;99.90;;;1.86;100.00;100164.38;4965359;28;100976;-63
2021/01/19 07:39:21;;;;;;;7.17;5.10;;;3.50;99.90;;;1.84;100.00;100165.47;4966548;28;100472;-63
2021/01/19 07:41:49;;;;;;;6.73;4.63;;;3.40;99.90;;;1.85;100.00;100157.47;4966490;28;100348;-63
2021/01/19 07:44:23;;;;;;;5.50;4.03;;;3.40;99.90;;;1.87;100.00;100152.88;4966704;28;100130;-64
2021/01/19 07:46:50;;;;;;;5.87;4.60;;;3.50;99.90;;;1.91;100.00;100150.88;4965590;28;101415;-63
2021/01/19 07:49:17;;;;;;;6.63;4.17;;;3.50;99.90;;;1.96;100.00;100149.63;4966176;28;101533;-64
2021/01/19 07:51:45;;;;;;;6.43;4.60;;;3.30;99.90;;;2.05;100.00;100148.13;4966620;28;100133;-64
2021/01/19 07:54:12;;;;;;;5.90;3.80;;;3.50;99.90;;;2.04;100.00;100147.28;4967635;28;100196;-65
2021/01/19 07:56:40;;;;;;;7.23;4.40;;;3.70;99.90;;;2.00;100.00;100148.44;4965801;28;99985;-64
2021/01/19 07:59:17;;;;;;;5.47;4.17;;;3.70;99.90;;;2.04;100.00;100138.53;4966035;28;101449;-63
2021/01/19 08:01:55;;;;;;;5.70;4.20;;;3.60;99.90;;;2.08;100.00;100132.94;4978845;28;100660;-64
2021/01/19 08:04:29;;;;;;;5.07;3.80;;;3.70;99.90;;;2.13;100.00;100130.81;4965619;28;100332;-64
2021/01/19 08:06:56;;;;;;;4.83;4.20;;;3.70;99.90;;;2.10;100.00;100120.44;4965367;28;100699;-64
2021/01/19 08:09:23;;;;;;;7.27;5.23;;;3.60;99.90;;;2.09;100.00;100121.44;4965397;28;100967;-64
2021/01/19 08:12:06;;;;;;;5.40;4.27;;;3.80;99.90;;;2.14;100.00;100121.94;4965136;28;100326;-64
2021/01/19 08:14:44;;;;;;;6.40;4.63;;;3.80;99.90;;;2.13;100.00;100127.31;4955488;28;100290;-65
2021/01/19 08:17:12;;;;;;;7.07;4.57;;;3.80;99.90;;;2.14;100.00;100113.16;4964498;28;101063;-63
2021/01/19 08:19:40;;;;;;;6.00;4.20;;;3.90;99.90;;;2.16;100.00;100117.41;4966097;28;100609;-64
2021/01/19 08:22:08;;;;;;;6.17;4.63;;;3.90;99.90;;;2.13;100.00;100108.84;4965624;28;100148;-64
2021/01/19 08:24:34;;;;;;;5.77;4.97;;;3.80;99.90;;;2.18;100.00;100106.72;4966006;28;100308;-64
2021/01/19 08:27:01;;;;;;;7.57;5.10;;;3.90;99.90;;;2.16;100.00;100106.84;4964319;28;101847;-63
2021/01/19 08:29:29;;;;;;;10.20;5.10;;;3.90;99.90;;;2.16;100.00;100114.75;4965770;28;100571;-63
2021/01/19 08:31:59;;;;;;;9.27;5.93;;;3.90;99.90;;;2.24;100.00;100106.28;4965780;28;100748;-64
2021/01/19 08:34:26;;;;;;;8.30;4.90;;;4.00;99.90;;;2.23;100.00;100096.66;4965384;28;100134;-62
2021/01/19 08:36:55;;;;;;;8.67;5.97;;;4.00;99.90;;;2.20;100.00;100098.72;4964549;28;101012;-63
2021/01/19 08:39:24;;;;;;;7.33;4.90;;;4.00;99.90;;;2.18;100.00;100096.16;4964882;28;100885;-63
2021/01/19 08:41:52;;;;;;;7.67;4.97;;;4.00;99.90;;;2.20;100.00;100096.06;4964836;28;100098;-62
2021/01/19 08:44:20;;;;;;;7.57;4.53;;;3.90;99.90;;;2.21;100.00;100080.13;4965989;28;100244;-63
2021/01/19 08:46:47;;;;;;;7.63;4.37;;;4.10;99.90;;;2.29;100.00;100083.03;4964325;28;100986;-63
2021/01/19 08:49:17;;;;;;;5.40;3.80;;;4.00;99.90;;;2.28;100.00;100078.72;4964979;28;100064;-63
2021/01/19 08:51:47;;;;;;;6.57;4.70;;;4.00;99.90;;;2.24;100.00;100077.25;4964199;28;99954;-62
2021/01/19 08:54:14;;;;;;;6.07;3.97;;;4.10;99.90;;;2.24;100.00;100076.41;4965171;28;100074;-63
2021/01/19 08:56:43;;;;;;;6.60;4.17;;;4.10;99.90;;;2.23;100.00;100064.16;4964535;28;101702;-63
2021/01/19 08:59:11;;;;;;;6.63;3.80;;;4.00;99.90;;;2.27;100.00;100068.25;4964609;28;100464;-64
2021/01/19 09:01:48;;;;;;;6.77;4.47;;;4.00;99.90;;;2.39;100.00;100067.38;4964802;28;100139;-62
2021/01/19 09:04:23;;;;;;;7.17;3.93;;;4.10;99.90;;;2.35;100.00;100065.94;4965758;28;100229;-63
2021/01/19 09:06:50;;;;;;;4.43;3.33;;;4.10;99.90;;;2.31;100.00;100064.47;4964957;28;100822;-63
2021/01/19 09:09:20;;;;;;;5.60;3.37;;;4.00;99.90;;;2.36;100.00;100064.94;4965226;28;100552;-62
2021/01/19 09:11:47;;;;;;;5.27;3.20;;;4.20;99.90;;;2.37;100.00;100070.13;4963901;28;100232;-63
2021/01/19 09:14:14;;;;;;;5.27;3.33;;;4.20;99.90;;;2.44;100.00;100076.66;4964999;28;100172;-63
2021/01/19 09:16:41;;;;;;;5.50;3.13;;;4.90;99.90;;;2.51;100.00;100061.19;4963685;28;101230;-64
2021/01/19 09:19:09;;;;;;;4.03;2.27;;;4.20;99.90;;;2.46;100.00;100056.28;4964817;28;101136;-62
2021/01/19 09:21:38;;;;;;;8.03;2.97;;;4.20;99.90;;;2.43;100.00;100047.72;4964543;28;100201;-64
2021/01/19 09:24:13;;;;;;;5.83;2.43;;;4.30;99.90;;;2.47;100.00;100030.69;4965139;28;100015;-64
2021/01/19 09:26:55;;;;;;;3.77;2.70;;;4.20;99.90;;;2.47;100.00;100031.50;4964398;28;101231;-63
2021/01/19 09:29:40;;;;;;;2.93;2.47;;;4.30;99.90;;;2.52;100.00;100026.75;4964613;27;100500;-64
2021/01/19 09:32:07;;;;;;;4.80;2.67;;;4.20;99.90;;;2.52;100.00;100016.19;4968400;27;100074;-63
2021/01/19 09:34:34;;;;;;;7.07;2.80;;;4.30;99.90;;;2.53;100.00;100023.16;4969072;28;100083;-63
2021/01/19 09:37:04;;;;;;;5.07;2.20;;;4.30;99.90;;;2.56;100.00;100016.81;4968346;28;100901;-63
2021/01/19 09:39:32;;;;;;;3.47;1.80;;;4.10;99.90;;;2.53;100.00;100014.38;4969032;28;100760;-63
2021/01/19 09:42:02;;;;;;;5.37;2.20;;;4.40;99.90;;;2.55;100.00;100019.56;4967214;28;100340;-63
2021/01/19 09:44:30;;;;;;;4.63;2.17;;;4.40;99.90;;;2.60;100.00;100004.22;4981921;28;100291;-63
2021/01/19 09:47:03;;;;;;;4.60;2.20;;;4.40;99.90;;;2.59;100.00;99994.63;4966839;28;101153;-63
2021/01/19 09:49:30;;;;;;;3.17;2.13;;;5.50;99.90;;;2.59;100.00;99987.53;4967662;28;101216;-63
2021/01/19 09:52:08;;;;;;;6.67;2.80;;;4.40;99.90;;;2.59;100.00;99978.78;4967476;28;100172;-63
2021/01/19 09:54:35;;;;;;;7.20;2.20;;;4.40;99.90;;;2.63;100.00;99974.91;4968108;28;100104;-63
2021/01/19 09:57:01;;;;;;;4.20;2.30;;;4.40;99.90;;;2.63;100.00;99967.84;4967026;28;101615;-63
2021/01/19 09:59:30;;;;;;;6.67;2.50;;;4.40;99.90;;;2.62;100.00;99973.22;4967855;28;100707;-61
2021/01/19 10:01:59;;;;;;;4.70;1.90;;;4.40;99.90;;;2.60;100.00;99961.97;4968007;28;100249;-63
2021/01/19 10:04:26;;;;;;;4.37;1.97;;;4.40;99.90;;;2.68;100.00;99952.50;4982962;28;100019;-64
2021/01/19 10:07:04;;;;;;;6.53;2.50;;;4.50;99.90;;;2.70;100.00;99961.16;4967134;28;101280;-63
2021/01/19 10:09:31;;;;;;;3.43;1.70;;;4.40;99.90;;;2.70;100.00;99944.47;4967600;28;101588;-64
2021/01/19 10:12:00;;;;;;;3.77;2.07;;;4.40;99.90;;;2.69;100.00;99948.91;4967591;28;100119;-63
2021/01/19 10:14:33;;;;;;;2.97;1.90;;;5.60;99.90;;;2.72;100.00;99938.06;4967345;28;100731;-63
2021/01/19 10:17:00;;;;;;;5.13;2.30;;;4.50;99.90;;;2.71;100.00;99938.22;4967952;28;100825;-63
2021/01/19 10:19:29;;;;;;;7.60;2.30;;;4.50;99.90;;;2.73;100.00;99926.53;4971583;28;100673;-63
2021/01/19 10:21:58;;;;;;;3.97;2.00;;;4.50;99.90;;;2.72;100.00;99916.13;4966972;28;100083;-63
2021/01/19 10:24:26;;;;;;;3.57;1.60;;;4.50;99.90;;;2.76;100.00;99915.75;4968347;28;100142;-63
2021/01/19 10:27:01;;;;;;;6.57;2.03;;;4.70;99.90;;;2.83;100.00;99903.78;4967422;28;100567;-63